sensor_id;sensor_type;location;lat;lon;timestamp;temperature;humidity
18797;DHT22;9526;52.612;13.300;2023-06-10T00:00:53;15.70;99.90
18797;DHT22;9526;52.612;13.300;2023-06-10T00:03:18;15.80;99.90
18797;DHT22;9526;52.612;13.300;2023-06-10T00:05:42;15.70;99.90
18797;DHT22;9526;52.612;13.300;2023-06-10T00:08:07;15.70;99.90
18797;DHT22;9526;52.612;13.300;2023-06-10T00:10:32;15.70;99.90
18797;DHT22;9526;52.612;13.300;2023-06-10T00:12:57;15.80;99.90
18797;DHT22;9526;52.612;13.300;2023-06-10T00:15:20;15.80;99.90
18797;DHT22;9526;52.612;13.300;2023-06-10T00:17:44;15.70;99.90
18797;DHT22;9526;52.612;13.300;2023-06-10T00:20:09;15.70;99.90
18797;DHT22;9526;52.612;13.300;2023-06-10T00:22:34;15.70;99.90
18797;DHT22;9526;52.612;13.300;2023-06-10T00:25:00;15.70;99.90
18797;DHT22;9526;52.612;13.300;2023-06-10T00:27:25;15.70;99.90
18797;DHT22;9526;52.612;13.300;2023-06-10T00:29:55;15.70;99.90
18797;DHT22;9526;52.612;13.300;2023-06-10T00:32:18;15.60;99.90
18797;DHT22;9526;52.612;13.300;2023-06-10T00:34:42;15.60;99.90
18797;DHT22;9526;52.612;13.300;2023-06-10T00:37:06;15.50;99.90
18797;DHT22;9526;52.612;13.300;2023-06-10T00:39:30;15.60;99.90
18797;DHT22;9526;52.612;13.300;2023-06-10T00:41:55;15.50;99.90
18797;DHT22;9526;52.612;13.300;2023-06-10T00:44:18;15.50;99.90
18797;DHT22;9526;52.612;13.300;2023-06-10T00:46:42;15.50;99.90
18797;DHT22;9526;52.612;13.300;2023-06-10T00:49:07;15.40;99.90
18797;DHT22;9526;52.612;13.300;2023-06-10T00:51:32;15.40;99.90
18797;DHT22;9526;52.612;13.300;2023-06-10T00:53:56;15.40;99.90
18797;DHT22;9526;52.612;13.300;2023-06-10T00:56:20;15.30;99.90
18797;DHT22;9526;52.612;13.300;2023-06-10T00:58:47;15.30;99.90
18797;DHT22;9526;52.612;13.300;2023-06-10T01:01:11;15.20;99.90
18797;DHT22;9526;52.612;13.300;2023-06-10T01:03:35;15.20;99.90
18797;DHT22;9526;52.612;13.300;2023-06-10T01:06:06;15.20;99.90
18797;DHT22;9526;52.612;13.300;2023-06-10T01:08:40;15.10;99.90
18797;DHT22;9526;52.612;13.300;2023-06-10T01:11:16;15.10;99.90
18797;DHT22;9526;52.612;13.300;2023-06-10T01:13:45;15.10;99.90
18797;DHT22;9526;52.612;13.300;2023-06-10T01:16:10;15.10;99.90
18797;DHT22;9526;52.612;13.300;2023-06-10T01:18:35;15.10;99.90
18797;DHT22;9526;52.612;13.300;2023-06-10T01:20:58;15.00;99.90
18797;DHT22;9526;52.612;13.300;2023-06-10T01:23:24;15.00;99.90
18797;DHT22;9526;52.612;13.300;2023-06-10T01:25:52;15.00;99.90
18797;DHT22;9526;52.612;13.300;2023-06-10T01:28:19;14.90;99.90
18797;DHT22;9526;52.612;13.300;2023-06-10T01:30:50;15.00;99.90
18797;DHT22;9526;52.612;13.300;2023-06-10T01:33:27;15.00;99.90
18797;DHT22;9526;52.612;13.300;2023-06-10T01:35:52;15.00;99.90
18797;DHT22;9526;52.612;13.300;2023-06-10T01:38:18;15.00;99.90
18797;DHT22;9526;52.612;13.300;2023-06-10T01:40:44;14.90;99.90
18797;DHT22;9526;52.612;13.300;2023-06-10T01:43:09;15.00;99.90
18797;DHT22;9526;52.612;13.300;2023-06-10T01:45:34;14.90;99.90
18797;DHT22;9526;52.612;13.300;2023-06-10T01:47:57;14.90;99.90
18797;DHT22;9526;52.612;13.300;2023-06-10T01:50:21;15.00;99.90
18797;DHT22;9526;52.612;13.300;2023-06-10T01:52:45;15.00;99.90
18797;DHT22;9526;52.612;13.300;2023-06-10T01:55:09;14.90;99.90
18797;DHT22;9526;52.612;13.300;2023-06-10T01:57:36;14.90;99.90
18797;DHT22;9526;52.612;13.300;2023-06-10T01:59:59;14.90;99.90
18797;DHT22;9526;52.612;13.300;2023-06-10T02:02:35;14.90;99.90
18797;DHT22;9526;52.612;13.300;2023-06-10T02:04:59;14.80;99.90
18797;DHT22;9526;52.612;13.300;2023-06-10T02:07:23;14.70;99.90
18797;DHT22;9526;52.612;13.300;2023-06-10T02:09:47;14.70;99.90
18797;DHT22;9526;52.612;13.300;2023-06-10T02:12:11;14.80;99.90
18797;DHT22;9526;52.612;13.300;2023-06-10T02:14:40;14.80;99.90
18797;DHT22;9526;52.612;13.300;2023-06-10T02:17:04;14.70;99.90
18797;DHT22;9526;52.612;13.300;2023-06-10T02:19:28;14.70;99.90
18797;DHT22;9526;52.612;13.300;2023-06-10T02:21:53;14.60;99.90
18797;DHT22;9526;52.612;13.300;2023-06-10T02:24:17;14.60;99.90
18797;DHT22;9526;52.612;13.300;2023-06-10T02:26:40;14.60;99.90
18797;DHT22;9526;52.612;13.300;2023-06-10T02:29:04;14.60;99.90
18797;DHT22;9526;52.612;13.300;2023-06-10T02:31:29;14.50;99.90
18797;DHT22;9526;52.612;13.300;2023-06-10T02:33:54;14.50;99.90
18797;DHT22;9526;52.612;13.300;2023-06-10T02:36:19;14.50;99.90
18797;DHT22;9526;52.612;13.300;2023-06-10T02:38:43;14.50;99.90
18797;DHT22;9526;52.612;13.300;2023-06-10T02:41:07;14.50;99.90
18797;DHT22;9526;52.612;13.300;2023-06-10T02:43:31;14.60;99.90
18797;DHT22;9526;52.612;13.300;2023-06-10T02:45:55;14.50;99.90
18797;DHT22;9526;52.612;13.300;2023-06-10T02:48:20;14.50;99.90
18797;DHT22;9526;52.612;13.300;2023-06-10T02:50:44;14.60;99.90
18797;DHT22;9526;52.612;13.300;2023-06-10T02:53:14;14.50;99.90
18797;DHT22;9526;52.612;13.300;2023-06-10T02:55:43;14.40;99.90
18797;DHT22;9526;52.612;13.300;2023-06-10T02:58:10;14.50;99.90
18797;DHT22;9526;52.612;13.300;2023-06-10T03:00:34;14.40;99.90
18797;DHT22;9526;52.612;13.300;2023-06-10T03:02:58;14.40;99.90
18797;DHT22;9526;52.612;13.300;2023-06-10T03:05:30;14.40;99.90
18797;DHT22;9526;52.612;13.300;2023-06-10T03:07:58;14.40;99.90
18797;DHT22;9526;52.612;13.300;2023-06-10T03:10:22;14.40;99.90
18797;DHT22;9526;52.612;13.300;2023-06-10T03:12:46;14.40;99.90
18797;DHT22;9526;52.612;13.300;2023-06-10T03:15:10;14.50;99.90
18797;DHT22;9526;52.612;13.300;2023-06-10T03:17:35;14.40;99.90
18797;DHT22;9526;52.612;13.300;2023-06-10T03:19:59;14.50;99.90
18797;DHT22;9526;52.612;13.300;2023-06-10T03:22:24;14.50;99.90
18797;DHT22;9526;52.612;13.300;2023-06-10T03:24:58;14.50;99.90
18797;DHT22;9526;52.612;13.300;2023-06-10T03:27:23;14.40;99.90
18797;DHT22;9526;52.612;13.300;2023-06-10T03:29:52;14.40;99.90
18797;DHT22;9526;52.612;13.300;2023-06-10T03:32:17;14.50;99.90
18797;DHT22;9526;52.612;13.300;2023-06-10T03:34:41;14.50;99.90
18797;DHT22;9526;52.612;13.300;2023-06-10T03:37:07;14.50;99.90
18797;DHT22;9526;52.612;13.300;2023-06-10T03:39:33;14.50;99.90
18797;DHT22;9526;52.612;13.300;2023-06-10T03:41:57;14.60;99.90
18797;DHT22;9526;52.612;13.300;2023-06-10T03:44:24;14.50;99.90
18797;DHT22;9526;52.612;13.300;2023-06-10T03:46:49;14.60;99.90
18797;DHT22;9526;52.612;13.300;2023-06-10T03:49:14;14.60;99.90
18797;DHT22;9526;52.612;13.300;2023-06-10T03:51:38;14.60;99.90
18797;DHT22;9526;52.612;13.300;2023-06-10T03:54:02;14.60;99.90
18797;DHT22;9526;52.612;13.300;2023-06-10T03:56:28;14.60;99.90
18797;DHT22;9526;52.612;13.300;2023-06-10T03:58:52;14.60;99.90
18797;DHT22;9526;52.612;13.300;2023-06-10T04:01:15;14.60;99.90
18797;DHT22;9526;52.612;13.300;2023-06-10T04:03:43;14.60;99.90
18797;DHT22;9526;52.612;13.300;2023-06-10T04:06:06;14.70;99.90
18797;DHT22;9526;52.612;13.300;2023-06-10T04:08:31;14.70;99.90
18797;DHT22;9526;52.612;13.300;2023-06-10T04:10:54;14.70;99.90
18797;DHT22;9526;52.612;13.300;2023-06-10T04:13:20;14.80;99.90
18797;DHT22;9526;52.612;13.300;2023-06-10T04:15:48;14.80;99.90
18797;DHT22;9526;52.612;13.300;2023-06-10T04:18:12;14.80;99.90
18797;DHT22;9526;52.612;13.300;2023-06-10T04:20:38;14.80;99.90
18797;DHT22;9526;52.612;13.300;2023-06-10T04:23:02;14.90;99.90
18797;DHT22;9526;52.612;13.300;2023-06-10T04:25:26;14.90;99.90
18797;DHT22;9526;52.612;13.300;2023-06-10T04:27:50;15.00;99.90
18797;DHT22;9526;52.612;13.300;2023-06-10T04:30:16;15.00;99.90
18797;DHT22;9526;52.612;13.300;2023-06-10T04:32:41;15.00;99.90
18797;DHT22;9526;52.612;13.300;2023-06-10T04:35:11;15.00;99.90
18797;DHT22;9526;52.612;13.300;2023-06-10T04:37:36;15.00;99.90
18797;DHT22;9526;52.612;13.300;2023-06-10T04:40:00;15.10;99.90
18797;DHT22;9526;52.612;13.300;2023-06-10T04:42:25;15.10;99.90
18797;DHT22;9526;52.612;13.300;2023-06-10T04:44:49;15.20;99.90
18797;DHT22;9526;52.612;13.300;2023-06-10T04:47:15;15.20;99.90
18797;DHT22;9526;52.612;13.300;2023-06-10T04:49:40;15.20;99.90
18797;DHT22;9526;52.612;13.300;2023-06-10T04:52:05;15.30;99.90
18797;DHT22;9526;52.612;13.300;2023-06-10T04:54:32;15.30;99.90
18797;DHT22;9526;52.612;13.300;2023-06-10T04:56:56;15.40;99.90
18797;DHT22;9526;52.612;13.300;2023-06-10T04:59:20;15.40;99.90
18797;DHT22;9526;52.612;13.300;2023-06-10T05:01:43;15.60;99.90
18797;DHT22;9526;52.612;13.300;2023-06-10T05:04:09;15.60;99.90
18797;DHT22;9526;52.612;13.300;2023-06-10T05:06:32;15.80;99.90
18797;DHT22;9526;52.612;13.300;2023-06-10T05:08:58;15.90;99.90
18797;DHT22;9526;52.612;13.300;2023-06-10T05:11:21;15.90;99.90
18797;DHT22;9526;52.612;13.300;2023-06-10T05:13:45;15.90;99.90
18797;DHT22;9526;52.612;13.300;2023-06-10T05:16:09;15.90;99.90
18797;DHT22;9526;52.612;13.300;2023-06-10T05:18:33;16.00;99.90
18797;DHT22;9526;52.612;13.300;2023-06-10T05:20:59;16.10;99.90
18797;DHT22;9526;52.612;13.300;2023-06-10T05:23:22;16.10;99.90
18797;DHT22;9526;52.612;13.300;2023-06-10T05:25:46;16.10;99.90
18797;DHT22;9526;52.612;13.300;2023-06-10T05:28:10;16.10;99.90
18797;DHT22;9526;52.612;13.300;2023-06-10T05:30:37;16.30;99.90
18797;DHT22;9526;52.612;13.300;2023-06-10T05:33:00;16.40;99.90
18797;DHT22;9526;52.612;13.300;2023-06-10T05:35:24;16.40;99.90
18797;DHT22;9526;52.612;13.300;2023-06-10T05:37:49;16.40;99.90
18797;DHT22;9526;52.612;13.300;2023-06-10T05:40:13;16.50;99.90
18797;DHT22;9526;52.612;13.300;2023-06-10T05:42:36;16.70;99.90
18797;DHT22;9526;52.612;13.300;2023-06-10T05:45:00;16.70;99.90
18797;DHT22;9526;52.612;13.300;2023-06-10T05:47:24;16.90;99.90
18797;DHT22;9526;52.612;13.300;2023-06-10T05:49:48;17.00;99.90
18797;DHT22;9526;52.612;13.300;2023-06-10T05:52:13;17.20;99.90
18797;DHT22;9526;52.612;13.300;2023-06-10T05:54:38;17.30;99.90
18797;DHT22;9526;52.612;13.300;2023-06-10T05:57:02;17.40;99.90
18797;DHT22;9526;52.612;13.300;2023-06-10T05:59:27;17.40;99.90
18797;DHT22;9526;52.612;13.300;2023-06-10T06:01:51;17.60;99.90
18797;DHT22;9526;52.612;13.300;2023-06-10T06:04:15;17.80;99.90
18797;DHT22;9526;52.612;13.300;2023-06-10T06:06:39;18.10;99.90
18797;DHT22;9526;52.612;13.300;2023-06-10T06:09:03;18.30;99.90
18797;DHT22;9526;52.612;13.300;2023-06-10T06:11:28;18.40;99.90
18797;DHT22;9526;52.612;13.300;2023-06-10T06:13:52;18.60;99.90
18797;DHT22;9526;52.612;13.300;2023-06-10T06:16:16;18.80;99.90
18797;DHT22;9526;52.612;13.300;2023-06-10T06:18:40;19.10;99.90
18797;DHT22;9526;52.612;13.300;2023-06-10T06:21:04;19.20;99.90
18797;DHT22;9526;52.612;13.300;2023-06-10T06:23:27;19.40;99.90
18797;DHT22;9526;52.612;13.300;2023-06-10T06:25:52;19.50;99.90
18797;DHT22;9526;52.612;13.300;2023-06-10T06:28:17;19.50;99.90
18797;DHT22;9526;52.612;13.300;2023-06-10T06:30:43;19.40;99.90
18797;DHT22;9526;52.612;13.300;2023-06-10T06:33:06;19.60;99.90
18797;DHT22;9526;52.612;13.300;2023-06-10T06:35:31;19.90;99.90
18797;DHT22;9526;52.612;13.300;2023-06-10T06:37:56;19.90;99.90
18797;DHT22;9526;52.612;13.300;2023-06-10T06:40:23;20.20;99.90
18797;DHT22;9526;52.612;13.300;2023-06-10T06:42:46;20.50;99.90
18797;DHT22;9526;52.612;13.300;2023-06-10T06:45:32;20.80;99.90
18797;DHT22;9526;52.612;13.300;2023-06-10T06:47:56;20.80;99.90
18797;DHT22;9526;52.612;13.300;2023-06-10T06:50:20;21.00;99.90
18797;DHT22;9526;52.612;13.300;2023-06-10T06:52:44;21.50;99.90
18797;DHT22;9526;52.612;13.300;2023-06-10T06:55:08;21.50;99.90
18797;DHT22;9526;52.612;13.300;2023-06-10T06:57:32;22.00;99.90
18797;DHT22;9526;52.612;13.300;2023-06-10T06:59:56;22.10;99.90
18797;DHT22;9526;52.612;13.300;2023-06-10T07:02:21;22.30;99.90
18797;DHT22;9526;52.612;13.300;2023-06-10T07:04:45;22.50;99.90
18797;DHT22;9526;52.612;13.300;2023-06-10T07:07:11;22.70;99.90
18797;DHT22;9526;52.612;13.300;2023-06-10T07:09:34;22.60;99.90
18797;DHT22;9526;52.612;13.300;2023-06-10T07:11:59;22.50;99.90
18797;DHT22;9526;52.612;13.300;2023-06-10T07:14:22;22.30;99.90
18797;DHT22;9526;52.612;13.300;2023-06-10T07:16:46;22.30;99.90
18797;DHT22;9526;52.612;13.300;2023-06-10T07:19:12;22.30;99.90
18797;DHT22;9526;52.612;13.300;2023-06-10T07:21:35;22.20;99.90
18797;DHT22;9526;52.612;13.300;2023-06-10T07:23:59;22.30;99.90
18797;DHT22;9526;52.612;13.300;2023-06-10T07:26:23;22.20;99.90
18797;DHT22;9526;52.612;13.300;2023-06-10T07:28:47;22.20;99.90
18797;DHT22;9526;52.612;13.300;2023-06-10T07:31:11;22.00;99.90
18797;DHT22;9526;52.612;13.300;2023-06-10T07:33:35;22.10;99.90
18797;DHT22;9526;52.612;13.300;2023-06-10T07:36:02;22.30;99.90
18797;DHT22;9526;52.612;13.300;2023-06-10T07:38:26;22.30;99.90
18797;DHT22;9526;52.612;13.300;2023-06-10T07:40:50;22.50;99.90
18797;DHT22;9526;52.612;13.300;2023-06-10T07:43:14;22.50;99.90
18797;DHT22;9526;52.612;13.300;2023-06-10T07:45:39;22.50;99.90
18797;DHT22;9526;52.612;13.300;2023-06-10T07:48:03;22.60;99.90
18797;DHT22;9526;52.612;13.300;2023-06-10T07:50:27;22.80;99.90
18797;DHT22;9526;52.612;13.300;2023-06-10T07:52:52;23.00;99.90
18797;DHT22;9526;52.612;13.300;2023-06-10T07:55:16;23.00;99.90
18797;DHT22;9526;52.612;13.300;2023-06-10T07:57:40;22.90;99.90
18797;DHT22;9526;52.612;13.300;2023-06-10T08:00:05;22.80;99.90
18797;DHT22;9526;52.612;13.300;2023-06-10T08:02:36;22.90;99.90
18797;DHT22;9526;52.612;13.300;2023-06-10T08:04:59;22.90;99.90
18797;DHT22;9526;52.612;13.300;2023-06-10T08:07:23;23.00;99.90
18797;DHT22;9526;52.612;13.300;2023-06-10T08:09:49;22.80;99.90
18797;DHT22;9526;52.612;13.300;2023-06-10T08:12:12;22.90;99.90
18797;DHT22;9526;52.612;13.300;2023-06-10T08:14:38;22.90;99.90
18797;DHT22;9526;52.612;13.300;2023-06-10T08:17:02;22.90;99.90
18797;DHT22;9526;52.612;13.300;2023-06-10T08:19:27;23.00;99.90
18797;DHT22;9526;52.612;13.300;2023-06-10T08:21:52;22.90;99.90
18797;DHT22;9526;52.612;13.300;2023-06-10T08:24:16;23.00;99.90
18797;DHT22;9526;52.612;13.300;2023-06-10T08:26:42;23.00;99.90
18797;DHT22;9526;52.612;13.300;2023-06-10T08:29:06;22.90;99.90
18797;DHT22;9526;52.612;13.300;2023-06-10T08:31:29;22.90;99.90
18797;DHT22;9526;52.612;13.300;2023-06-10T08:33:53;22.90;99.90
18797;DHT22;9526;52.612;13.300;2023-06-10T08:36:17;22.90;99.90
18797;DHT22;9526;52.612;13.300;2023-06-10T08:38:40;22.80;99.90
18797;DHT22;9526;52.612;13.300;2023-06-10T08:41:05;22.90;99.90
18797;DHT22;9526;52.612;13.300;2023-06-10T08:43:33;22.90;99.90
18797;DHT22;9526;52.612;13.300;2023-06-10T08:46:00;22.90;99.90
18797;DHT22;9526;52.612;13.300;2023-06-10T08:48:26;23.00;99.90
18797;DHT22;9526;52.612;13.300;2023-06-10T08:50:51;22.90;99.90
18797;DHT22;9526;52.612;13.300;2023-06-10T08:53:18;22.90;99.90
18797;DHT22;9526;52.612;13.300;2023-06-10T08:55:42;22.80;99.90
18797;DHT22;9526;52.612;13.300;2023-06-10T08:58:08;22.90;99.90
18797;DHT22;9526;52.612;13.300;2023-06-10T09:00:35;22.80;99.90
18797;DHT22;9526;52.612;13.300;2023-06-10T09:03:00;22.90;99.90
18797;DHT22;9526;52.612;13.300;2023-06-10T09:05:27;23.00;99.90
18797;DHT22;9526;52.612;13.300;2023-06-10T09:07:52;23.10;99.90
18797;DHT22;9526;52.612;13.300;2023-06-10T09:10:16;23.00;99.90
18797;DHT22;9526;52.612;13.300;2023-06-10T09:12:40;23.00;99.90
18797;DHT22;9526;52.612;13.300;2023-06-10T09:15:04;22.90;99.90
18797;DHT22;9526;52.612;13.300;2023-06-10T09:17:30;22.80;99.90
18797;DHT22;9526;52.612;13.300;2023-06-10T09:19:54;22.60;99.90
18797;DHT22;9526;52.612;13.300;2023-06-10T09:22:19;22.70;99.90
18797;DHT22;9526;52.612;13.300;2023-06-10T09:24:42;22.70;99.90
18797;DHT22;9526;52.612;13.300;2023-06-10T09:27:07;22.90;99.90
18797;DHT22;9526;52.612;13.300;2023-06-10T09:29:32;23.00;99.90
18797;DHT22;9526;52.612;13.300;2023-06-10T09:31:56;23.00;99.90
18797;DHT22;9526;52.612;13.300;2023-06-10T09:34:25;22.80;99.90
18797;DHT22;9526;52.612;13.300;2023-06-10T09:36:48;22.80;99.90
18797;DHT22;9526;52.612;13.300;2023-06-10T09:39:16;22.70;99.90
18797;DHT22;9526;52.612;13.300;2023-06-10T09:41:41;22.70;99.90
18797;DHT22;9526;52.612;13.300;2023-06-10T09:44:11;22.70;99.90
18797;DHT22;9526;52.612;13.300;2023-06-10T09:46:36;22.60;99.90
18797;DHT22;9526;52.612;13.300;2023-06-10T09:49:00;22.60;99.90
18797;DHT22;9526;52.612;13.300;2023-06-10T09:51:25;22.50;99.90
18797;DHT22;9526;52.612;13.300;2023-06-10T09:53:51;22.50;99.90
18797;DHT22;9526;52.612;13.300;2023-06-10T09:56:15;22.60;99.90
18797;DHT22;9526;52.612;13.300;2023-06-10T09:58:39;22.70;99.90
18797;DHT22;9526;52.612;13.300;2023-06-10T10:01:06;22.70;99.90
18797;DHT22;9526;52.612;13.300;2023-06-10T10:03:30;22.70;99.90
18797;DHT22;9526;52.612;13.300;2023-06-10T10:05:58;22.60;99.90
18797;DHT22;9526;52.612;13.300;2023-06-10T10:08:24;22.60;99.90
18797;DHT22;9526;52.612;13.300;2023-06-10T10:10:48;22.50;99.90
18797;DHT22;9526;52.612;13.300;2023-06-10T10:13:11;22.60;99.90
18797;DHT22;9526;52.612;13.300;2023-06-10T10:15:35;22.70;99.90
18797;DHT22;9526;52.612;13.300;2023-06-10T10:18:06;22.60;99.90
18797;DHT22;9526;52.612;13.300;2023-06-10T10:20:34;22.60;99.90
18797;DHT22;9526;52.612;13.300;2023-06-10T10:23:03;22.60;99.90
18797;DHT22;9526;52.612;13.300;2023-06-10T10:25:34;22.60;99.90
18797;DHT22;9526;52.612;13.300;2023-06-10T10:28:08;22.60;99.90
18797;DHT22;9526;52.612;13.300;2023-06-10T10:30:37;22.50;99.90
18797;DHT22;9526;52.612;13.300;2023-06-10T10:33:06;22.30;99.90
18797;DHT22;9526;52.612;13.300;2023-06-10T10:35:33;22.30;99.90
18797;DHT22;9526;52.612;13.300;2023-06-10T10:37:57;22.20;99.90
18797;DHT22;9526;52.612;13.300;2023-06-10T10:40:22;22.10;99.90
18797;DHT22;9526;52.612;13.300;2023-06-10T10:42:48;22.10;99.90
18797;DHT22;9526;52.612;13.300;2023-06-10T10:45:13;22.10;99.90
18797;DHT22;9526;52.612;13.300;2023-06-10T10:47:38;22.00;99.90
18797;DHT22;9526;52.612;13.300;2023-06-10T10:50:01;21.90;99.90
18797;DHT22;9526;52.612;13.300;2023-06-10T10:52:51;21.90;99.90
18797;DHT22;9526;52.612;13.300;2023-06-10T10:55:18;21.70;99.90
18797;DHT22;9526;52.612;13.300;2023-06-10T10:57:42;21.70;99.90
18797;DHT22;9526;52.612;13.300;2023-06-10T11:00:10;21.80;99.90
18797;DHT22;9526;52.612;13.300;2023-06-10T11:02:36;22.00;99.90
18797;DHT22;9526;52.612;13.300;2023-06-10T11:05:06;22.10;99.90
18797;DHT22;9526;52.612;13.300;2023-06-10T11:07:33;22.20;99.90
18797;DHT22;9526;52.612;13.300;2023-06-10T11:09:59;22.30;99.90
18797;DHT22;9526;52.612;13.300;2023-06-10T11:12:23;22.40;99.90
18797;DHT22;9526;52.612;13.300;2023-06-10T11:14:53;22.50;99.90
18797;DHT22;9526;52.612;13.300;2023-06-10T11:17:20;22.60;99.90
18797;DHT22;9526;52.612;13.300;2023-06-10T11:19:44;22.80;99.90
18797;DHT22;9526;52.612;13.300;2023-06-10T11:22:08;22.90;99.90
18797;DHT22;9526;52.612;13.300;2023-06-10T11:24:39;23.00;99.90
18797;DHT22;9526;52.612;13.300;2023-06-10T11:27:16;23.20;99.90
18797;DHT22;9526;52.612;13.300;2023-06-10T11:29:55;23.40;99.90
18797;DHT22;9526;52.612;13.300;2023-06-10T11:32:21;23.50;99.90
18797;DHT22;9526;52.612;13.300;2023-06-10T11:34:52;23.60;99.90
18797;DHT22;9526;52.612;13.300;2023-06-10T11:37:16;23.60;99.90
18797;DHT22;9526;52.612;13.300;2023-06-10T11:39:40;23.60;99.90
18797;DHT22;9526;52.612;13.300;2023-06-10T11:42:04;23.30;99.90
18797;DHT22;9526;52.612;13.300;2023-06-10T11:44:28;23.30;99.90
18797;DHT22;9526;52.612;13.300;2023-06-10T11:46:56;23.00;99.90
18797;DHT22;9526;52.612;13.300;2023-06-10T11:49:21;22.90;99.90
18797;DHT22;9526;52.612;13.300;2023-06-10T11:51:46;22.80;99.90
18797;DHT22;9526;52.612;13.300;2023-06-10T11:54:13;22.60;99.90
18797;DHT22;9526;52.612;13.300;2023-06-10T11:56:38;22.70;99.90
18797;DHT22;9526;52.612;13.300;2023-06-10T11:59:03;22.80;99.90
18797;DHT22;9526;52.612;13.300;2023-06-10T12:01:30;22.90;99.90
18797;DHT22;9526;52.612;13.300;2023-06-10T12:03:59;23.10;99.90
18797;DHT22;9526;52.612;13.300;2023-06-10T12:06:25;23.30;99.90
18797;DHT22;9526;52.612;13.300;2023-06-10T12:08:49;23.30;99.90
18797;DHT22;9526;52.612;13.300;2023-06-10T12:11:13;23.60;99.90
18797;DHT22;9526;52.612;13.300;2023-06-10T12:13:37;23.80;99.90
18797;DHT22;9526;52.612;13.300;2023-06-10T12:16:10;24.00;99.90
18797;DHT22;9526;52.612;13.300;2023-06-10T12:18:34;24.30;99.90
18797;DHT22;9526;52.612;13.300;2023-06-10T12:20:58;24.50;99.90
18797;DHT22;9526;52.612;13.300;2023-06-10T12:23:23;24.70;99.90
18797;DHT22;9526;52.612;13.300;2023-06-10T12:25:51;24.90;99.90
18797;DHT22;9526;52.612;13.300;2023-06-10T12:28:15;24.90;99.90
18797;DHT22;9526;52.612;13.300;2023-06-10T12:30:39;25.20;99.90
18797;DHT22;9526;52.612;13.300;2023-06-10T12:33:03;25.40;99.90
18797;DHT22;9526;52.612;13.300;2023-06-10T12:35:28;25.50;99.90
18797;DHT22;9526;52.612;13.300;2023-06-10T12:37:55;25.60;99.90
18797;DHT22;9526;52.612;13.300;2023-06-10T12:40:27;25.80;99.90
18797;DHT22;9526;52.612;13.300;2023-06-10T12:42:51;26.00;99.90
18797;DHT22;9526;52.612;13.300;2023-06-10T12:45:26;26.20;99.90
18797;DHT22;9526;52.612;13.300;2023-06-10T12:47:51;26.40;99.90
18797;DHT22;9526;52.612;13.300;2023-06-10T12:50:15;26.90;99.90
18797;DHT22;9526;52.612;13.300;2023-06-10T12:52:39;27.10;99.60
18797;DHT22;9526;52.612;13.300;2023-06-10T12:55:05;27.20;99.10
18797;DHT22;9526;52.612;13.300;2023-06-10T12:57:31;27.40;99.10
18797;DHT22;9526;52.612;13.300;2023-06-10T12:59:54;27.40;98.80
18797;DHT22;9526;52.612;13.300;2023-06-10T13:02:25;27.30;99.60
18797;DHT22;9526;52.612;13.300;2023-06-10T13:04:49;27.50;98.90
18797;DHT22;9526;52.612;13.300;2023-06-10T13:07:13;27.90;98.70
18797;DHT22;9526;52.612;13.300;2023-06-10T13:09:37;28.00;97.80
18797;DHT22;9526;52.612;13.300;2023-06-10T13:12:00;28.00;98.30
18797;DHT22;9526;52.612;13.300;2023-06-10T13:14:25;27.90;98.30
18797;DHT22;9526;52.612;13.300;2023-06-10T13:16:50;28.10;97.70
18797;DHT22;9526;52.612;13.300;2023-06-10T13:19:17;28.00;98.00
18797;DHT22;9526;52.612;13.300;2023-06-10T13:21:40;28.10;98.00
18797;DHT22;9526;52.612;13.300;2023-06-10T13:24:04;28.40;97.50
18797;DHT22;9526;52.612;13.300;2023-06-10T13:26:29;28.60;96.60
18797;DHT22;9526;52.612;13.300;2023-06-10T13:28:53;28.80;96.70
18797;DHT22;9526;52.612;13.300;2023-06-10T13:31:18;28.90;95.80
18797;DHT22;9526;52.612;13.300;2023-06-10T13:33:43;28.80;96.50
18797;DHT22;9526;52.612;13.300;2023-06-10T13:36:06;28.80;94.80
18797;DHT22;9526;52.612;13.300;2023-06-10T13:38:30;28.90;95.40
18797;DHT22;9526;52.612;13.300;2023-06-10T13:40:54;29.00;93.40
18797;DHT22;9526;52.612;13.300;2023-06-10T13:43:18;29.10;94.90
18797;DHT22;9526;52.612;13.300;2023-06-10T13:45:41;29.30;94.50
18797;DHT22;9526;52.612;13.300;2023-06-10T13:48:07;29.10;92.70
18797;DHT22;9526;52.612;13.300;2023-06-10T13:50:31;29.20;94.30
18797;DHT22;9526;52.612;13.300;2023-06-10T13:52:55;29.50;94.90
18797;DHT22;9526;52.612;13.300;2023-06-10T13:55:19;29.70;93.40
18797;DHT22;9526;52.612;13.300;2023-06-10T13:57:42;29.70;93.20
18797;DHT22;9526;52.612;13.300;2023-06-10T14:00:07;29.80;92.70
18797;DHT22;9526;52.612;13.300;2023-06-10T14:02:32;29.60;92.00
18797;DHT22;9526;52.612;13.300;2023-06-10T14:04:58;29.40;92.20
18797;DHT22;9526;52.612;13.300;2023-06-10T14:07:22;29.50;92.20
18797;DHT22;9526;52.612;13.300;2023-06-10T14:09:46;29.90;91.30
18797;DHT22;9526;52.612;13.300;2023-06-10T14:12:09;30.00;91.30
18797;DHT22;9526;52.612;13.300;2023-06-10T14:14:34;29.80;90.80
18797;DHT22;9526;52.612;13.300;2023-06-10T14:16:58;29.80;90.20
18797;DHT22;9526;52.612;13.300;2023-06-10T14:19:22;30.00;89.50
18797;DHT22;9526;52.612;13.300;2023-06-10T14:21:47;29.70;85.90
18797;DHT22;9526;52.612;13.300;2023-06-10T14:24:11;29.60;86.10
18797;DHT22;9526;52.612;13.300;2023-06-10T14:26:35;29.60;86.10
18797;DHT22;9526;52.612;13.300;2023-06-10T14:28:59;29.60;80.50
18797;DHT22;9526;52.612;13.300;2023-06-10T14:31:24;29.60;82.30
18797;DHT22;9526;52.612;13.300;2023-06-10T14:33:48;29.70;79.20
18797;DHT22;9526;52.612;13.300;2023-06-10T14:36:12;29.80;78.00
18797;DHT22;9526;52.612;13.300;2023-06-10T14:38:37;29.60;80.10
18797;DHT22;9526;52.612;13.300;2023-06-10T14:41:01;29.80;81.10
18797;DHT22;9526;52.612;13.300;2023-06-10T14:43:25;29.90;80.60
18797;DHT22;9526;52.612;13.300;2023-06-10T14:45:48;29.90;78.50
18797;DHT22;9526;52.612;13.300;2023-06-10T14:48:13;29.90;79.50
18797;DHT22;9526;52.612;13.300;2023-06-10T14:50:37;30.00;83.70
18797;DHT22;9526;52.612;13.300;2023-06-10T14:53:02;30.20;79.50
18797;DHT22;9526;52.612;13.300;2023-06-10T14:55:28;30.00;77.10
18797;DHT22;9526;52.612;13.300;2023-06-10T14:57:52;30.00;78.00
18797;DHT22;9526;52.612;13.300;2023-06-10T15:00:16;30.10;77.60
18797;DHT22;9526;52.612;13.300;2023-06-10T15:02:44;30.10;77.70
18797;DHT22;9526;52.612;13.300;2023-06-10T15:05:09;30.20;79.60
18797;DHT22;9526;52.612;13.300;2023-06-10T15:07:33;30.20;77.70
18797;DHT22;9526;52.612;13.300;2023-06-10T15:09:57;30.50;78.80
18797;DHT22;9526;52.612;13.300;2023-06-10T15:12:22;30.30;76.30
18797;DHT22;9526;52.612;13.300;2023-06-10T15:14:47;30.10;74.80
18797;DHT22;9526;52.612;13.300;2023-06-10T15:17:10;30.00;72.90